sensor_id;sensor_type;location;lat;lon;timestamp;P1;durP1;ratioP1;P2;durP2;ratioP2
20118;SDS011;10220;42.716;23.306;2023-02-21T00:01:45;1.10;;;0.90;;
20118;SDS011;10220;42.716;23.306;2023-02-21T00:04:29;2.53;;;0.97;;
20118;SDS011;10220;42.716;23.306;2023-02-21T00:07:13;2.80;;;0.73;;
20118;SDS011;10220;42.716;23.306;2023-02-21T00:09:57;1.60;;;0.87;;
20118;SDS011;10220;42.716;23.306;2023-02-21T00:12:41;2.87;;;1.10;;
20118;SDS011;10220;42.716;23.306;2023-02-21T00:15:25;3.23;;;1.57;;
20118;SDS011;10220;42.716;23.306;2023-02-21T00:18:09;1.93;;;1.40;;
20118;SDS011;10220;42.716;23.306;2023-02-21T00:20:53;1.50;;;1.33;;
20118;SDS011;10220;42.716;23.306;2023-02-21T00:23:37;1.17;;;0.90;;
20118;SDS011;10220;42.716;23.306;2023-02-21T00:26:21;3.97;;;1.23;;
20118;SDS011;10220;42.716;23.306;2023-02-21T00:29:05;1.10;;;1.00;;
20118;SDS011;10220;42.716;23.306;2023-02-21T00:31:50;3.70;;;1.60;;
20118;SDS011;10220;42.716;23.306;2023-02-21T00:34:34;2.87;;;2.00;;
20118;SDS011;10220;42.716;23.306;2023-02-21T00:37:18;2.03;;;1.30;;
20118;SDS011;10220;42.716;23.306;2023-02-21T00:40:02;3.77;;;1.37;;
20118;SDS011;10220;42.716;23.306;2023-02-21T00:42:47;1.53;;;1.10;;
20118;SDS011;10220;42.716;23.306;2023-02-21T00:45:32;2.43;;;1.43;;
20118;SDS011;10220;42.716;23.306;2023-02-21T00:48:19;1.07;;;0.80;;
20118;SDS011;10220;42.716;23.306;2023-02-21T00:51:03;2.37;;;1.40;;
20118;SDS011;10220;42.716;23.306;2023-02-21T00:53:47;1.60;;;1.27;;
20118;SDS011;10220;42.716;23.306;2023-02-21T00:56:31;2.63;;;1.57;;
20118;SDS011;10220;42.716;23.306;2023-02-21T00:59:15;2.87;;;1.67;;
20118;SDS011;10220;42.716;23.306;2023-02-21T01:01:59;2.30;;;1.20;;
20118;SDS011;10220;42.716;23.306;2023-02-21T01:04:43;1.23;;;0.80;;
20118;SDS011;10220;42.716;23.306;2023-02-21T01:07:27;1.60;;;1.03;;
20118;SDS011;10220;42.716;23.306;2023-02-21T01:10:11;1.07;;;0.97;;
20118;SDS011;10220;42.716;23.306;2023-02-21T01:12:55;4.93;;;1.17;;
20118;SDS011;10220;42.716;23.306;2023-02-21T01:15:39;1.93;;;0.90;;
20118;SDS011;10220;42.716;23.306;2023-02-21T01:18:23;1.87;;;1.27;;
20118;SDS011;10220;42.716;23.306;2023-02-21T01:21:10;1.10;;;1.00;;
20118;SDS011;10220;42.716;23.306;2023-02-21T01:26:59;1.10;;;1.00;;
20118;SDS011;10220;42.716;23.306;2023-02-21T01:29:43;1.37;;;0.97;;
20118;SDS011;10220;42.716;23.306;2023-02-21T01:32:27;1.83;;;1.30;;
20118;SDS011;10220;42.716;23.306;2023-02-21T01:35:11;1.00;;;1.00;;
20118;SDS011;10220;42.716;23.306;2023-02-21T01:37:55;0.80;;;0.80;;
20118;SDS011;10220;42.716;23.306;2023-02-21T01:40:40;1.17;;;0.70;;
20118;SDS011;10220;42.716;23.306;2023-02-21T01:43:24;1.10;;;1.00;;
20118;SDS011;10220;42.716;23.306;2023-02-21T01:46:16;0.97;;;0.97;;
20118;SDS011;10220;42.716;23.306;2023-02-21T01:49:07;2.87;;;1.17;;
20118;SDS011;10220;42.716;23.306;2023-02-21T01:51:53;1.23;;;0.90;;
20118;SDS011;10220;42.716;23.306;2023-02-21T01:54:40;1.63;;;0.80;;
20118;SDS011;10220;42.716;23.306;2023-02-21T01:57:27;3.50;;;1.03;;
20118;SDS011;10220;42.716;23.306;2023-02-21T02:00:11;1.03;;;0.93;;
20118;SDS011;10220;42.716;23.306;2023-02-21T02:05:50;0.93;;;0.90;;
20118;SDS011;10220;42.716;23.306;2023-02-21T02:08:38;1.23;;;1.10;;
20118;SDS011;10220;42.716;23.306;2023-02-21T02:36:09;2.17;;;0.90;;
20118;SDS011;10220;42.716;23.306;2023-02-21T02:39:26;1.17;;;0.90;;
20118;SDS011;10220;42.716;23.306;2023-02-21T02:44:47;0.83;;;0.83;;
20118;SDS011;10220;42.716;23.306;2023-02-21T02:47:18;4.40;;;1.20;;
20118;SDS011;10220;42.716;23.306;2023-02-21T02:49:49;1.27;;;0.80;;
20118;SDS011;10220;42.716;23.306;2023-02-21T02:52:16;1.90;;;0.90;;
20118;SDS011;10220;42.716;23.306;2023-02-21T02:54:42;1.50;;;1.07;;
20118;SDS011;10220;42.716;23.306;2023-02-21T02:57:08;1.30;;;1.20;;
20118;SDS011;10220;42.716;23.306;2023-02-21T02:59:38;0.90;;;0.67;;
20118;SDS011;10220;42.716;23.306;2023-02-21T03:13:24;1.57;;;1.10;;
20118;SDS011;10220;42.716;23.306;2023-02-21T03:21:25;1.67;;;1.00;;
20118;SDS011;10220;42.716;23.306;2023-02-21T03:23:53;1.67;;;1.57;;
20118;SDS011;10220;42.716;23.306;2023-02-21T03:26:22;1.43;;;1.20;;
20118;SDS011;10220;42.716;23.306;2023-02-21T03:28:51;2.27;;;1.77;;
20118;SDS011;10220;42.716;23.306;2023-02-21T03:31:18;2.40;;;2.07;;
20118;SDS011;10220;42.716;23.306;2023-02-21T03:33:48;4.63;;;3.37;;
20118;SDS011;10220;42.716;23.306;2023-02-21T03:36:13;7.07;;;3.50;;
20118;SDS011;10220;42.716;23.306;2023-02-21T03:38:39;3.13;;;1.33;;
20118;SDS011;10220;42.716;23.306;2023-02-21T03:41:05;1.70;;;1.07;;
20118;SDS011;10220;42.716;23.306;2023-02-21T03:43:32;0.90;;;0.50;;
20118;SDS011;10220;42.716;23.306;2023-02-21T03:45:57;2.27;;;1.07;;
20118;SDS011;10220;42.716;23.306;2023-02-21T03:48:22;0.67;;;0.67;;
20118;SDS011;10220;42.716;23.306;2023-02-21T03:50:48;1.67;;;0.97;;
20118;SDS011;10220;42.716;23.306;2023-02-21T03:53:13;1.63;;;0.67;;
20118;SDS011;10220;42.716;23.306;2023-02-21T03:55:39;1.43;;;0.90;;
20118;SDS011;10220;42.716;23.306;2023-02-21T03:58:04;1.97;;;1.10;;
20118;SDS011;10220;42.716;23.306;2023-02-21T04:00:30;3.37;;;1.30;;
20118;SDS011;10220;42.716;23.306;2023-02-21T04:02:55;1.03;;;0.60;;
20118;SDS011;10220;42.716;23.306;2023-02-21T04:05:20;2.83;;;1.47;;
20118;SDS011;10220;42.716;23.306;2023-02-21T04:07:46;1.40;;;1.13;;
20118;SDS011;10220;42.716;23.306;2023-02-21T04:10:12;1.30;;;0.90;;
20118;SDS011;10220;42.716;23.306;2023-02-21T04:12:38;0.83;;;0.77;;
20118;SDS011;10220;42.716;23.306;2023-02-21T04:15:04;6.30;;;1.97;;
20118;SDS011;10220;42.716;23.306;2023-02-21T04:17:30;2.77;;;1.30;;
20118;SDS011;10220;42.716;23.306;2023-02-21T04:19:56;1.20;;;0.80;;
20118;SDS011;10220;42.716;23.306;2023-02-21T04:22:21;1.37;;;1.27;;
20118;SDS011;10220;42.716;23.306;2023-02-21T04:24:46;1.23;;;0.70;;
20118;SDS011;10220;42.716;23.306;2023-02-21T04:27:12;1.70;;;0.67;;
20118;SDS011;10220;42.716;23.306;2023-02-21T04:29:38;3.07;;;1.43;;
20118;SDS011;10220;42.716;23.306;2023-02-21T04:32:04;3.37;;;1.53;;
20118;SDS011;10220;42.716;23.306;2023-02-21T04:34:29;1.57;;;1.47;;
20118;SDS011;10220;42.716;23.306;2023-02-21T04:36:55;3.07;;;1.23;;
20118;SDS011;10220;42.716;23.306;2023-02-21T04:39:20;3.13;;;1.07;;
20118;SDS011;10220;42.716;23.306;2023-02-21T04:41:45;3.83;;;1.23;;
20118;SDS011;10220;42.716;23.306;2023-02-21T04:44:11;1.53;;;1.40;;
20118;SDS011;10220;42.716;23.306;2023-02-21T04:46:37;5.03;;;3.00;;
20118;SDS011;10220;42.716;23.306;2023-02-21T04:49:02;2.57;;;2.10;;
20118;SDS011;10220;42.716;23.306;2023-02-21T04:51:28;5.83;;;4.43;;
20118;SDS011;10220;42.716;23.306;2023-02-21T04:53:54;4.27;;;3.03;;
20118;SDS011;10220;42.716;23.306;2023-02-21T04:56:21;21.57;;;10.80;;
20118;SDS011;10220;42.716;23.306;2023-02-21T04:58:48;17.17;;;9.70;;
20118;SDS011;10220;42.716;23.306;2023-02-21T05:01:15;8.60;;;5.37;;
20118;SDS011;10220;42.716;23.306;2023-02-21T05:03:41;10.97;;;6.37;;
20118;SDS011;10220;42.716;23.306;2023-02-21T05:06:07;34.63;;;20.13;;
20118;SDS011;10220;42.716;23.306;2023-02-21T05:08:32;44.80;;;24.23;;
20118;SDS011;10220;42.716;23.306;2023-02-21T05:10:59;45.63;;;19.40;;
20118;SDS011;10220;42.716;23.306;2023-02-21T05:13:24;37.63;;;17.60;;
20118;SDS011;10220;42.716;23.306;2023-02-21T05:15:50;22.57;;;10.57;;
20118;SDS011;10220;42.716;23.306;2023-02-21T05:18:15;8.73;;;5.43;;
20118;SDS011;10220;42.716;23.306;2023-02-21T05:20:46;52.33;;;23.00;;
20118;SDS011;10220;42.716;23.306;2023-02-21T05:23:15;19.37;;;9.43;;
20118;SDS011;10220;42.716;23.306;2023-02-21T05:26:02;28.67;;;14.73;;
20118;SDS011;10220;42.716;23.306;2023-02-21T05:28:30;32.33;;;15.70;;
20118;SDS011;10220;42.716;23.306;2023-02-21T05:30:55;35.57;;;15.63;;
20118;SDS011;10220;42.716;23.306;2023-02-21T05:33:21;23.73;;;10.77;;
20118;SDS011;10220;42.716;23.306;2023-02-21T05:35:46;14.87;;;6.17;;
20118;SDS011;10220;42.716;23.306;2023-02-21T05:38:13;9.97;;;4.43;;
20118;SDS011;10220;42.716;23.306;2023-02-21T05:40:39;13.97;;;6.27;;
20118;SDS011;10220;42.716;23.306;2023-02-21T05:43:04;12.97;;;6.00;;
20118;SDS011;10220;42.716;23.306;2023-02-21T05:45:29;7.43;;;3.67;;
20118;SDS011;10220;42.716;23.306;2023-02-21T05:47:55;9.07;;;4.67;;
20118;SDS011;10220;42.716;23.306;2023-02-21T05:50:24;16.07;;;6.93;;
20118;SDS011;10220;42.716;23.306;2023-02-21T05:52:51;10.23;;;5.43;;
20118;SDS011;10220;42.716;23.306;2023-02-21T05:55:17;4.40;;;3.10;;
20118;SDS011;10220;42.716;23.306;2023-02-21T05:57:42;6.90;;;3.47;;
20118;SDS011;10220;42.716;23.306;2023-02-21T06:00:25;15.53;;;7.40;;
20118;SDS011;10220;42.716;23.306;2023-02-21T06:02:53;9.93;;;4.80;;
20118;SDS011;10220;42.716;23.306;2023-02-21T06:05:20;8.50;;;2.90;;
20118;SDS011;10220;42.716;23.306;2023-02-21T06:07:45;18.73;;;9.10;;
20118;SDS011;10220;42.716;23.306;2023-02-21T06:10:11;22.50;;;12.20;;
20118;SDS011;10220;42.716;23.306;2023-02-21T06:12:37;27.00;;;13.37;;
20118;SDS011;10220;42.716;23.306;2023-02-21T06:15:03;22.23;;;10.87;;
20118;SDS011;10220;42.716;23.306;2023-02-21T06:17:32;3.80;;;1.73;;
20118;SDS011;10220;42.716;23.306;2023-02-21T06:20:00;5.23;;;3.67;;
20118;SDS011;10220;42.716;23.306;2023-02-21T06:22:25;9.47;;;4.33;;
20118;SDS011;10220;42.716;23.306;2023-02-21T06:24:51;20.63;;;8.13;;
20118;SDS011;10220;42.716;23.306;2023-02-21T06:27:16;18.47;;;9.33;;
20118;SDS011;10220;42.716;23.306;2023-02-21T06:29:42;9.17;;;5.63;;
20118;SDS011;10220;42.716;23.306;2023-02-21T06:32:07;55.97;;;29.80;;
20118;SDS011;10220;42.716;23.306;2023-02-21T06:34:32;24.60;;;14.03;;
20118;SDS011;10220;42.716;23.306;2023-02-21T06:36:58;28.57;;;12.80;;
20118;SDS011;10220;42.716;23.306;2023-02-21T06:39:23;33.50;;;16.17;;
20118;SDS011;10220;42.716;23.306;2023-02-21T06:41:49;30.45;;;13.45;;
20118;SDS011;10220;42.716;23.306;2023-02-21T06:44:15;24.02;;;12.27;;
20118;SDS011;10220;42.716;23.306;2023-02-21T06:46:41;17.55;;;6.32;;
20118;SDS011;10220;42.716;23.306;2023-02-21T06:49:07;25.63;;;14.35;;
20118;SDS011;10220;42.716;23.306;2023-02-21T06:51:34;16.08;;;10.20;;
20118;SDS011;10220;42.716;23.306;2023-02-21T06:54:00;6.47;;;3.80;;
20118;SDS011;10220;42.716;23.306;2023-02-21T06:56:26;19.35;;;9.38;;
20118;SDS011;10220;42.716;23.306;2023-02-21T06:58:52;17.10;;;7.85;;
20118;SDS011;10220;42.716;23.306;2023-02-21T07:01:17;18.95;;;10.27;;
20118;SDS011;10220;42.716;23.306;2023-02-21T07:03:43;12.77;;;6.15;;
20118;SDS011;10220;42.716;23.306;2023-02-21T07:06:10;15.30;;;7.43;;
20118;SDS011;10220;42.716;23.306;2023-02-21T07:08:36;3.85;;;2.60;;
20118;SDS011;10220;42.716;23.306;2023-02-21T07:11:01;1.65;;;1.52;;
20118;SDS011;10220;42.716;23.306;2023-02-21T07:13:26;4.22;;;1.65;;
20118;SDS011;10220;42.716;23.306;2023-02-21T07:15:52;5.05;;;2.15;;
20118;SDS011;10220;42.716;23.306;2023-02-21T07:18:17;7.88;;;2.50;;
20118;SDS011;10220;42.716;23.306;2023-02-21T07:20:43;8.98;;;1.92;;
20118;SDS011;10220;42.716;23.306;2023-02-21T07:23:08;31.58;;;13.57;;
20118;SDS011;10220;42.716;23.306;2023-02-21T07:25:34;10.95;;;3.92;;
20118;SDS011;10220;42.716;23.306;2023-02-21T07:27:59;2.05;;;1.55;;
20118;SDS011;10220;42.716;23.306;2023-02-21T07:30:26;6.20;;;3.58;;
20118;SDS011;10220;42.716;23.306;2023-02-21T07:32:51;10.10;;;2.47;;
20118;SDS011;10220;42.716;23.306;2023-02-21T07:35:17;2.33;;;1.67;;
20118;SDS011;10220;42.716;23.306;2023-02-21T07:37:42;10.05;;;5.00;;
20118;SDS011;10220;42.716;23.306;2023-02-21T07:40:07;9.60;;;4.93;;
20118;SDS011;10220;42.716;23.306;2023-02-21T07:42:33;7.90;;;3.83;;
20118;SDS011;10220;42.716;23.306;2023-02-21T07:44:59;14.85;;;3.20;;
20118;SDS011;10220;42.716;23.306;2023-02-21T07:47:25;9.65;;;2.35;;
20118;SDS011;10220;42.716;23.306;2023-02-21T07:49:52;7.18;;;3.58;;
20118;SDS011;10220;42.716;23.306;2023-02-21T07:52:18;4.25;;;2.53;;
20118;SDS011;10220;42.716;23.306;2023-02-21T07:54:44;7.20;;;4.03;;
20118;SDS011;10220;42.716;23.306;2023-02-21T07:57:10;5.50;;;2.70;;
20118;SDS011;10220;42.716;23.306;2023-02-21T07:59:36;5.28;;;2.63;;
20118;SDS011;10220;42.716;23.306;2023-02-21T08:02:02;4.35;;;3.08;;
20118;SDS011;10220;42.716;23.306;2023-02-21T08:04:28;12.88;;;3.10;;
20118;SDS011;10220;42.716;23.306;2023-02-21T08:06:59;4.50;;;1.98;;
20118;SDS011;10220;42.716;23.306;2023-02-21T08:09:26;7.75;;;3.13;;
20118;SDS011;10220;42.716;23.306;2023-02-21T08:11:51;4.70;;;2.55;;
20118;SDS011;10220;42.716;23.306;2023-02-21T08:14:17;8.30;;;2.97;;
20118;SDS011;10220;42.716;23.306;2023-02-21T08:16:42;14.18;;;5.07;;
20118;SDS011;10220;42.716;23.306;2023-02-21T08:19:08;5.50;;;4.03;;
20118;SDS011;10220;42.716;23.306;2023-02-21T08:21:34;4.90;;;3.17;;
20118;SDS011;10220;42.716;23.306;2023-02-21T08:23:59;4.00;;;2.85;;
20118;SDS011;10220;42.716;23.306;2023-02-21T08:26:25;13.27;;;3.28;;
20118;SDS011;10220;42.716;23.306;2023-02-21T08:28:50;3.75;;;2.72;;
20118;SDS011;10220;42.716;23.306;2023-02-21T08:31:16;8.38;;;3.35;;
20118;SDS011;10220;42.716;23.306;2023-02-21T08:33:41;7.38;;;3.40;;
20118;SDS011;10220;42.716;23.306;2023-02-21T08:36:07;9.75;;;3.25;;
20118;SDS011;10220;42.716;23.306;2023-02-21T08:38:32;14.88;;;3.40;;
20118;SDS011;10220;42.716;23.306;2023-02-21T08:40:57;7.43;;;3.85;;
20118;SDS011;10220;42.716;23.306;2023-02-21T08:43:23;8.35;;;4.35;;
20118;SDS011;10220;42.716;23.306;2023-02-21T08:45:49;7.82;;;4.15;;
20118;SDS011;10220;42.716;23.306;2023-02-21T08:48:15;11.68;;;4.40;;
20118;SDS011;10220;42.716;23.306;2023-02-21T08:50:40;6.07;;;2.85;;
20118;SDS011;10220;42.716;23.306;2023-02-21T08:53:06;7.43;;;3.70;;
20118;SDS011;10220;42.716;23.306;2023-02-21T08:55:32;12.98;;;3.28;;
20118;SDS011;10220;42.716;23.306;2023-02-21T08:57:57;9.68;;;3.28;;
20118;SDS011;10220;42.716;23.306;2023-02-21T09:00:23;8.07;;;3.92;;
20118;SDS011;10220;42.716;23.306;2023-02-21T09:02:52;7.53;;;4.22;;
20118;SDS011;10220;42.716;23.306;2023-02-21T09:05:20;9.65;;;5.10;;
20118;SDS011;10220;42.716;23.306;2023-02-21T09:07:51;11.93;;;3.78;;
20118;SDS011;10220;42.716;23.306;2023-02-21T09:10:23;6.38;;;3.63;;
20118;SDS011;10220;42.716;23.306;2023-02-21T09:12:49;5.30;;;2.50;;
20118;SDS011;10220;42.716;23.306;2023-02-21T09:15:15;9.18;;;3.38;;
20118;SDS011;10220;42.716;23.306;2023-02-21T09:17:41;8.60;;;3.40;;
20118;SDS011;10220;42.716;23.306;2023-02-21T09:20:07;5.38;;;3.13;;
20118;SDS011;10220;42.716;23.306;2023-02-21T09:22:34;8.40;;;3.95;;
20118;SDS011;10220;42.716;23.306;2023-02-21T09:25:00;11.38;;;3.45;;
20118;SDS011;10220;42.716;23.306;2023-02-21T09:27:26;7.10;;;3.40;;
20118;SDS011;10220;42.716;23.306;2023-02-21T09:30:02;6.85;;;3.78;;
20118;SDS011;10220;42.716;23.306;2023-02-21T09:32:31;9.98;;;4.10;;
20118;SDS011;10220;42.716;23.306;2023-02-21T09:34:58;8.00;;;3.95;;
20118;SDS011;10220;42.716;23.306;2023-02-21T09:37:24;6.68;;;3.50;;
20118;SDS011;10220;42.716;23.306;2023-02-21T09:39:49;7.15;;;4.22;;
20118;SDS011;10220;42.716;23.306;2023-02-21T09:42:16;7.30;;;3.50;;
20118;SDS011;10220;42.716;23.306;2023-02-21T09:44:42;8.07;;;3.83;;
20118;SDS011;10220;42.716;23.306;2023-02-21T09:47:09;8.73;;;3.83;;
20118;SDS011;10220;42.716;23.306;2023-02-21T09:49:40;10.55;;;4.22;;
20118;SDS011;10220;42.716;23.306;2023-02-21T09:52:17;9.52;;;4.45;;
20118;SDS011;10220;42.716;23.306;2023-02-21T09:54:50;9.18;;;3.13;;
20118;SDS011;10220;42.716;23.306;2023-02-21T09:57:22;6.68;;;3.15;;
20118;SDS011;10220;42.716;23.306;2023-02-21T09:59:48;3.60;;;2.53;;
20118;SDS011;10220;42.716;23.306;2023-02-21T10:04:56;4.95;;;2.53;;
20118;SDS011;10220;42.716;23.306;2023-02-21T10:07:42;7.90;;;1.92;;
20118;SDS011;10220;42.716;23.306;2023-02-21T10:16:04;3.38;;;1.63;;
20118;SDS011;10220;42.716;23.306;2023-02-21T10:18:38;1.75;;;1.10;;
20118;SDS011;10220;42.716;23.306;2023-02-21T10:21:10;1.55;;;0.98;;
20118;SDS011;10220;42.716;23.306;2023-02-21T10:23:40;1.10;;;0.70;;
20118;SDS011;10220;42.716;23.306;2023-02-21T10:26:12;7.30;;;1.25;;
20118;SDS011;10220;42.716;23.306;2023-02-21T10:28:44;2.53;;;1.40;;
20118;SDS011;10220;42.716;23.306;2023-02-21T10:31:11;2.45;;;1.30;;
20118;SDS011;10220;42.716;23.306;2023-02-21T10:33:44;2.20;;;1.50;;
20118;SDS011;10220;42.716;23.306;2023-02-21T10:36:14;3.78;;;2.10;;
20118;SDS011;10220;42.716;23.306;2023-02-21T10:38:43;1.30;;;1.10;;
20118;SDS011;10220;42.716;23.306;2023-02-21T10:41:17;2.47;;;0.82;;
20118;SDS011;10220;42.716;23.306;2023-02-21T10:43:44;3.08;;;1.40;;
20118;SDS011;10220;42.716;23.306;2023-02-21T10:48:40;1.70;;;0.80;;
20118;SDS011;10220;42.716;23.306;2023-02-21T10:56:32;5.43;;;1.20;;
20118;SDS011;10220;42.716;23.306;2023-02-21T11:04:39;2.33;;;1.00;;
20118;SDS011;10220;42.716;23.306;2023-02-21T11:06:46;4.65;;;1.45;;
20118;SDS011;10220;42.716;23.306;2023-02-21T11:09:32;0.77;;;0.68;;
20118;SDS011;10220;42.716;23.306;2023-02-21T11:12:23;1.35;;;1.00;;
20118;SDS011;10220;42.716;23.306;2023-02-21T11:17:17;1.98;;;1.20;;
20118;SDS011;10220;42.716;23.306;2023-02-21T11:19:55;3.53;;;1.10;;
20118;SDS011;10220;42.716;23.306;2023-02-21T11:22:45;1.23;;;0.98;;
20118;SDS011;10220;42.716;23.306;2023-02-21T11:30:34;3.75;;;1.10;;
20118;SDS011;10220;42.716;23.306;2023-02-21T11:33:02;1.92;;;1.00;;
20118;SDS011;10220;42.716;23.306;2023-02-21T11:35:38;2.22;;;1.30;;
20118;SDS011;10220;42.716;23.306;2023-02-21T11:40:54;1.30;;;0.88;;
20118;SDS011;10220;42.716;23.306;2023-02-21T11:43:21;0.90;;;0.85;;
20118;SDS011;10220;42.716;23.306;2023-02-21T11:46:52;1.30;;;1.13;;
20118;SDS011;10220;42.716;23.306;2023-02-21T11:48:53;1.42;;;1.00;;
20118;SDS011;10220;42.716;23.306;2023-02-21T11:51:32;1.20;;;1.00;;
20118;SDS011;10220;42.716;23.306;2023-02-21T11:54:02;2.55;;;1.10;;
20118;SDS011;10220;42.716;23.306;2023-02-21T11:59:00;1.73;;;1.45;;
20118;SDS011;10220;42.716;23.306;2023-02-21T12:01:28;0.95;;;0.70;;
20118;SDS011;10220;42.716;23.306;2023-02-21T12:12:44;1.23;;;1.10;;
20118;SDS011;10220;42.716;23.306;2023-02-21T12:17:51;0.85;;;0.85;;
20118;SDS011;10220;42.716;23.306;2023-02-21T12:26:07;1.52;;;0.90;;
20118;SDS011;10220;42.716;23.306;2023-02-21T12:31:57;2.60;;;0.98;;
20118;SDS011;10220;42.716;23.306;2023-02-21T12:35:03;1.90;;;0.90;;
20118;SDS011;10220;42.716;23.306;2023-02-21T12:40:27;2.75;;;1.17;;
20118;SDS011;10220;42.716;23.306;2023-02-21T12:43:10;1.77;;;1.00;;
20118;SDS011;10220;42.716;23.306;2023-02-21T12:46:12;0.98;;;0.90;;
20118;SDS011;10220;42.716;23.306;2023-02-21T12:48:38;2.35;;;1.10;;
20118;SDS011;10220;42.716;23.306;2023-02-21T12:51:11;0.77;;;0.77;;
20118;SDS011;10220;42.716;23.306;2023-02-21T12:53:42;1.73;;;0.80;;
20118;SDS011;10220;42.716;23.306;2023-02-21T12:56:16;1.15;;;0.88;;
20118;SDS011;10220;42.716;23.306;2023-02-21T13:01:48;1.85;;;1.10;;
20118;SDS011;10220;42.716;23.306;2023-02-21T13:12:52;1.38;;;1.02;;
20118;SDS011;10220;42.716;23.306;2023-02-21T13:15:21;2.15;;;1.20;;
20118;SDS011;10220;42.716;23.306;2023-02-21T13:17:54;1.45;;;1.00;;
20118;SDS011;10220;42.716;23.306;2023-02-21T13:20:23;1.17;;;1.00;;
20118;SDS011;10220;42.716;23.306;2023-02-21T13:26:27;3.20;;;0.93;;
20118;SDS011;10220;42.716;23.306;2023-02-21T13:29:03;1.58;;;0.90;;
20118;SDS011;10220;42.716;23.306;2023-02-21T13:31:41;3.90;;;1.17;;
20118;SDS011;10220;42.716;23.306;2023-02-21T13:34:07;2.78;;;1.15;;
20118;SDS011;10220;42.716;23.306;2023-02-21T13:41:34;1.00;;;0.90;;
20118;SDS011;10220;42.716;23.306;2023-02-21T13:44:06;1.42;;;0.90;;
20118;SDS011;10220;42.716;23.306;2023-02-21T14:10:54;0.95;;;0.82;;
20118;SDS011;10220;42.716;23.306;2023-02-21T14:19:08;2.17;;;0.95;;
20118;SDS011;10220;42.716;23.306;2023-02-21T14:21:41;0.98;;;0.70;;
20118;SDS011;10220;42.716;23.306;2023-02-21T14:24:21;1.23;;;1.10;;
20118;SDS011;10220;42.716;23.306;2023-02-21T14:26:49;3.63;;;1.00;;
20118;SDS011;10220;42.716;23.306;2023-02-21T14:39:49;2.13;;;1.10;;
20118;SDS011;10220;42.716;23.306;2023-02-21T14:48:00;1.10;;;0.70;;
20118;SDS011;10220;42.716;23.306;2023-02-21T14:53:59;1.10;;;1.00;;
20118;SDS011;10220;42.716;23.306;2023-02-21T14:56:32;2.67;;;0.80;;
20118;SDS011;10220;42.716;23.306;2023-02-21T15:04:41;1.52;;;1.00;;
20118;SDS011;10220;42.716;23.306;2023-02-21T15:07:17;1.02;;;0.90;;
20118;SDS011;10220;42.716;23.306;2023-02-21T15:17:57;1.30;;;1.00;;
20118;SDS011;10220;42.716;23.306;2023-02-21T15:20:23;3.35;;;1.10;;
20118;SDS011;10220;42.716;23.306;2023-02-21T15:23:31;1.50;;;0.98;;
20118;SDS011;10220;42.716;23.306;2023-02-21T15:25:52;4.07;;;1.23;;
20118;SDS011;10220;42.716;23.306;2023-02-21T15:28:22;1.95;;;1.02;;
20118;SDS011;10220;42.716;23.306;2023-02-21T15:33:29;3.28;;;1.10;;
20118;SDS011;10220;42.716;23.306;2023-02-21T15:35:58;2.40;;;1.33;;
20118;SDS011;10220;42.716;23.306;2023-02-21T15:38:31;1.20;;;0.95;;
20118;SDS011;10220;42.716;23.306;2023-02-21T15:41:05;1.88;;;1.05;;
20118;SDS011;10220;42.716;23.306;2023-02-21T15:46:11;5.30;;;1.40;;
20118;SDS011;10220;42.716;23.306;2023-02-21T15:48:41;1.55;;;1.40;;
20118;SDS011;10220;42.716;23.306;2023-02-21T15:51:07;3.65;;;1.85;;
20118;SDS011;10220;42.716;23.306;2023-02-21T15:53:34;3.13;;;1.92;;
20118;SDS011;10220;42.716;23.306;2023-02-21T15:56:16;3.25;;;1.65;;
20118;SDS011;10220;42.716;23.306;2023-02-21T16:01:34;4.20;;;2.03;;
20118;SDS011;10220;42.716;23.306;2023-02-21T16:04:17;3.80;;;2.10;;
20118;SDS011;10220;42.716;23.306;2023-02-21T16:06:48;3.88;;;2.75;;
20118;SDS011;10220;42.716;23.306;2023-02-21T16:09:22;6.18;;;2.80;;
20118;SDS011;10220;42.716;23.306;2023-02-21T16:12:02;4.85;;;2.60;;
20118;SDS011;10220;42.716;23.306;2023-02-21T16:14:32;8.32;;;3.13;;
20118;SDS011;10220;42.716;23.306;2023-02-21T16:19:52;6.82;;;3.55;;
20118;SDS011;10220;42.716;23.306;2023-02-21T16:22:25;9.18;;;4.05;;
20118;SDS011;10220;42.716;23.306;2023-02-21T16:27:52;6.53;;;3.45;;
20118;SDS011;10220;42.716;23.306;2023-02-21T16:30:28;5.53;;;3.60;;
20118;SDS011;10220;42.716;23.306;2023-02-21T16:32:59;3.45;;;1.92;;
20118;SDS011;10220;42.716;23.306;2023-02-21T16:35:26;5.28;;;2.17;;
20118;SDS011;10220;42.716;23.306;2023-02-21T16:37:54;7.25;;;2.40;;
20118;SDS011;10220;42.716;23.306;2023-02-21T16:40:22;8.50;;;2.95;;
20118;SDS011;10220;42.716;23.306;2023-02-21T16:42:50;7.82;;;2.95;;
20118;SDS011;10220;42.716;23.306;2023-02-21T16:45:17;5.40;;;2.67;;
20118;SDS011;10220;42.716;23.306;2023-02-21T16:47:43;5.57;;;2.92;;
20118;SDS011;10220;42.716;23.306;2023-02-21T16:50:25;4.45;;;2.70;;
20118;SDS011;10220;42.716;23.306;2023-02-21T16:52:51;12.50;;;2.75;;
20118;SDS011;10220;42.716;23.306;2023-02-21T16:55:17;4.68;;;3.05;;
20118;SDS011;10220;42.716;23.306;2023-02-21T16:57:50;7.43;;;2.67;;
20118;SDS011;10220;42.716;23.306;2023-02-21T17:00:18;6.57;;;2.50;;
20118;SDS011;10220;42.716;23.306;2023-02-21T17:02:45;7.25;;;3.75;;
20118;SDS011;10220;42.716;23.306;2023-02-21T17:05:15;9.57;;;3.30;;
20118;SDS011;10220;42.716;23.306;2023-02-21T17:07:40;8.02;;;2.97;;
20118;SDS011;10220;42.716;23.306;2023-02-21T17:10:06;9.75;;;2.97;;
20118;SDS011;10220;42.716;23.306;2023-02-21T17:12:32;9.52;;;3.28;;
20118;SDS011;10220;42.716;23.306;2023-02-21T17:15:00;8.63;;;3.65;;
20118;SDS011;10220;42.716;23.306;2023-02-21T17:17:25;8.70;;;3.55;;
20118;SDS011;10220;42.716;23.306;2023-02-21T17:19:52;5.93;;;3.05;;
20118;SDS011;10220;42.716;23.306;2023-02-21T17:22:17;7.97;;;3.85;;
20118;SDS011;10220;42.716;23.306;2023-02-21T17:24:43;4.50;;;2.92;;
20118;SDS011;10220;42.716;23.306;2023-02-21T17:27:08;7.15;;;3.60;;
20118;SDS011;10220;42.716;23.306;2023-02-21T17:29:34;7.72;;;3.33;;
20118;SDS011;10220;42.716;23.306;2023-02-21T17:31:59;4.97;;;2.78;;
20118;SDS011;10220;42.716;23.306;2023-02-21T17:34:31;4.32;;;2.92;;
20118;SDS011;10220;42.716;23.306;2023-02-21T17:36:57;10.63;;;3.28;;
20118;SDS011;10220;42.716;23.306;2023-02-21T17:39:23;6.32;;;3.25;;
20118;SDS011;10220;42.716;23.306;2023-02-21T17:41:49;4.95;;;3.20;;
20118;SDS011;10220;42.716;23.306;2023-02-21T17:44:15;5.75;;;3.50;;
20118;SDS011;10220;42.716;23.306;2023-02-21T17:46:51;8.48;;;4.85;;
20118;SDS011;10220;42.716;23.306;2023-02-21T17:49:19;10.60;;;5.72;;
20118;SDS011;10220;42.716;23.306;2023-02-21T17:51:51;7.43;;;4.45;;
20118;SDS011;10220;42.716;23.306;2023-02-21T17:54:18;11.10;;;4.10;;
20118;SDS011;10220;42.716;23.306;2023-02-21T17:56:47;13.93;;;3.83;;
20118;SDS011;10220;42.716;23.306;2023-02-21T17:59:12;10.13;;;3.75;;
20118;SDS011;10220;42.716;23.306;2023-02-21T18:01:38;12.43;;;3.75;;
20118;SDS011;10220;42.716;23.306;2023-02-21T18:04:05;6.97;;;3.78;;
20118;SDS011;10220;42.716;23.306;2023-02-21T18:06:31;6.70;;;3.35;;
20118;SDS011;10220;42.716;23.306;2023-02-21T18:08:56;5.85;;;3.53;;
20118;SDS011;10220;42.716;23.306;2023-02-21T18:11:22;7.63;;;3.42;;
20118;SDS011;10220;42.716;23.306;2023-02-21T18:13:49;6.05;;;3.67;;
20118;SDS011;10220;42.716;23.306;2023-02-21T18:16:15;7.57;;;4.13;;
20118;SDS011;10220;42.716;23.306;2023-02-21T18:18:40;7.80;;;3.50;;